sensor_id;sensor_type;location;lat;lon;timestamp;P1;durP1;ratioP1;P2;durP2;ratioP2
59207;SDS011;44977;53.132;6.408;2023-08-21T00:00:50;7.55;;;2.85;;
59207;SDS011;44977;53.132;6.408;2023-08-21T00:05:51;8.13;;;2.90;;
59207;SDS011;44977;53.132;6.408;2023-08-21T00:10:52;8.35;;;2.80;;
59207;SDS011;44977;53.132;6.408;2023-08-21T00:15:53;6.68;;;2.80;;
59207;SDS011;44977;53.132;6.408;2023-08-21T00:20:55;7.10;;;2.95;;
59207;SDS011;44977;53.132;6.408;2023-08-21T00:25:56;8.32;;;2.70;;
59207;SDS011;44977;53.132;6.408;2023-08-21T00:31:00;7.60;;;2.70;;
59207;SDS011;44977;53.132;6.408;2023-08-21T00:36:04;7.53;;;2.70;;
59207;SDS011;44977;53.132;6.408;2023-08-21T00:41:05;6.93;;;2.70;;
59207;SDS011;44977;53.132;6.408;2023-08-21T00:46:06;7.68;;;2.90;;
59207;SDS011;44977;53.132;6.408;2023-08-21T00:51:07;9.32;;;2.88;;
59207;SDS011;44977;53.132;6.408;2023-08-21T00:56:08;5.82;;;2.35;;
59207;SDS011;44977;53.132;6.408;2023-08-21T01:01:09;6.25;;;2.63;;
59207;SDS011;44977;53.132;6.408;2023-08-21T01:06:09;6.97;;;2.40;;
59207;SDS011;44977;53.132;6.408;2023-08-21T01:16:27;6.60;;;2.30;;
59207;SDS011;44977;53.132;6.408;2023-08-21T01:21:29;5.63;;;2.10;;
59207;SDS011;44977;53.132;6.408;2023-08-21T01:26:30;7.35;;;2.20;;
59207;SDS011;44977;53.132;6.408;2023-08-21T01:31:31;6.28;;;1.95;;
59207;SDS011;44977;53.132;6.408;2023-08-21T01:36:34;5.55;;;2.00;;
59207;SDS011;44977;53.132;6.408;2023-08-21T01:41:35;5.70;;;2.20;;
59207;SDS011;44977;53.132;6.408;2023-08-21T01:46:36;6.75;;;2.30;;
59207;SDS011;44977;53.132;6.408;2023-08-21T01:51:36;6.25;;;2.17;;
59207;SDS011;44977;53.132;6.408;2023-08-21T01:56:37;6.30;;;2.20;;
59207;SDS011;44977;53.132;6.408;2023-08-21T02:01:38;6.55;;;2.45;;
59207;SDS011;44977;53.132;6.408;2023-08-21T02:06:38;7.40;;;2.33;;
59207;SDS011;44977;53.132;6.408;2023-08-21T02:11:39;7.32;;;2.42;;
59207;SDS011;44977;53.132;6.408;2023-08-21T02:16:40;5.38;;;2.65;;
59207;SDS011;44977;53.132;6.408;2023-08-21T02:21:40;5.32;;;2.15;;
59207;SDS011;44977;53.132;6.408;2023-08-21T02:26:41;5.07;;;2.10;;
59207;SDS011;44977;53.132;6.408;2023-08-21T02:31:43;5.65;;;2.58;;
59207;SDS011;44977;53.132;6.408;2023-08-21T02:36:43;8.90;;;2.92;;
59207;SDS011;44977;53.132;6.408;2023-08-21T02:41:44;7.53;;;2.47;;
59207;SDS011;44977;53.132;6.408;2023-08-21T02:46:45;7.63;;;2.90;;
59207;SDS011;44977;53.132;6.408;2023-08-21T02:51:45;7.47;;;3.00;;
59207;SDS011;44977;53.132;6.408;2023-08-21T02:56:46;7.15;;;3.03;;
59207;SDS011;44977;53.132;6.408;2023-08-21T03:01:48;8.43;;;2.70;;
59207;SDS011;44977;53.132;6.408;2023-08-21T03:06:48;8.25;;;2.88;;
59207;SDS011;44977;53.132;6.408;2023-08-21T03:11:49;7.28;;;3.15;;
59207;SDS011;44977;53.132;6.408;2023-08-21T03:16:50;7.90;;;3.00;;
59207;SDS011;44977;53.132;6.408;2023-08-21T03:21:50;8.82;;;3.15;;
59207;SDS011;44977;53.132;6.408;2023-08-21T03:26:51;6.70;;;2.60;;
59207;SDS011;44977;53.132;6.408;2023-08-21T03:31:53;6.68;;;2.30;;
59207;SDS011;44977;53.132;6.408;2023-08-21T03:36:56;7.47;;;2.90;;
59207;SDS011;44977;53.132;6.408;2023-08-21T03:41:57;7.07;;;2.63;;
59207;SDS011;44977;53.132;6.408;2023-08-21T03:46:57;7.50;;;2.83;;
59207;SDS011;44977;53.132;6.408;2023-08-21T03:51:58;6.43;;;3.10;;
59207;SDS011;44977;53.132;6.408;2023-08-21T03:56:59;6.18;;;2.55;;
59207;SDS011;44977;53.132;6.408;2023-08-21T04:02:00;6.55;;;3.17;;
59207;SDS011;44977;53.132;6.408;2023-08-21T04:07:00;6.90;;;2.92;;
59207;SDS011;44977;53.132;6.408;2023-08-21T04:12:01;6.15;;;2.70;;
59207;SDS011;44977;53.132;6.408;2023-08-21T04:17:02;6.70;;;2.90;;
59207;SDS011;44977;53.132;6.408;2023-08-21T04:22:03;7.47;;;2.70;;
59207;SDS011;44977;53.132;6.408;2023-08-21T04:27:03;5.32;;;2.28;;
59207;SDS011;44977;53.132;6.408;2023-08-21T04:32:05;6.68;;;2.45;;
59207;SDS011;44977;53.132;6.408;2023-08-21T04:37:06;6.03;;;2.40;;
59207;SDS011;44977;53.132;6.408;2023-08-21T04:42:07;8.63;;;2.70;;
59207;SDS011;44977;53.132;6.408;2023-08-21T04:47:26;6.93;;;2.67;;
59207;SDS011;44977;53.132;6.408;2023-08-21T04:52:27;6.57;;;2.70;;
59207;SDS011;44977;53.132;6.408;2023-08-21T04:57:28;7.13;;;2.50;;
59207;SDS011;44977;53.132;6.408;2023-08-21T05:02:28;5.35;;;2.22;;
59207;SDS011;44977;53.132;6.408;2023-08-21T05:07:29;7.47;;;3.10;;
59207;SDS011;44977;53.132;6.408;2023-08-21T05:12:29;6.75;;;2.85;;
59207;SDS011;44977;53.132;6.408;2023-08-21T05:17:30;7.28;;;3.05;;
59207;SDS011;44977;53.132;6.408;2023-08-21T05:22:31;8.20;;;2.83;;
59207;SDS011;44977;53.132;6.408;2023-08-21T05:27:31;6.00;;;2.90;;
59207;SDS011;44977;53.132;6.408;2023-08-21T05:32:32;6.20;;;2.70;;
59207;SDS011;44977;53.132;6.408;2023-08-21T05:37:33;5.95;;;2.83;;
59207;SDS011;44977;53.132;6.408;2023-08-21T05:42:34;5.82;;;2.40;;
59207;SDS011;44977;53.132;6.408;2023-08-21T05:47:34;7.30;;;2.80;;
59207;SDS011;44977;53.132;6.408;2023-08-21T05:52:35;8.35;;;3.38;;
59207;SDS011;44977;53.132;6.408;2023-08-21T05:57:35;8.10;;;3.50;;
59207;SDS011;44977;53.132;6.408;2023-08-21T06:02:37;9.32;;;3.30;;
59207;SDS011;44977;53.132;6.408;2023-08-21T06:07:38;9.77;;;3.80;;
59207;SDS011;44977;53.132;6.408;2023-08-21T06:12:40;10.20;;;3.35;;
59207;SDS011;44977;53.132;6.408;2023-08-21T06:17:41;9.60;;;3.67;;
59207;SDS011;44977;53.132;6.408;2023-08-21T06:22:42;8.57;;;3.28;;
59207;SDS011;44977;53.132;6.408;2023-08-21T06:27:43;7.88;;;3.20;;
59207;SDS011;44977;53.132;6.408;2023-08-21T06:32:44;8.43;;;3.28;;
59207;SDS011;44977;53.132;6.408;2023-08-21T06:37:44;7.97;;;3.20;;
59207;SDS011;44977;53.132;6.408;2023-08-21T06:42:45;9.45;;;3.20;;
59207;SDS011;44977;53.132;6.408;2023-08-21T06:47:45;5.90;;;2.67;;
59207;SDS011;44977;53.132;6.408;2023-08-21T06:52:47;8.98;;;2.58;;
59207;SDS011;44977;53.132;6.408;2023-08-21T06:57:48;6.60;;;2.65;;
59207;SDS011;44977;53.132;6.408;2023-08-21T07:02:48;7.13;;;2.33;;
59207;SDS011;44977;53.132;6.408;2023-08-21T07:07:49;9.13;;;2.20;;
59207;SDS011;44977;53.132;6.408;2023-08-21T07:12:50;6.47;;;1.90;;
59207;SDS011;44977;53.132;6.408;2023-08-21T07:17:51;5.40;;;1.90;;
59207;SDS011;44977;53.132;6.408;2023-08-21T07:22:51;7.80;;;1.90;;
59207;SDS011;44977;53.132;6.408;2023-08-21T07:27:52;6.88;;;1.67;;
59207;SDS011;44977;53.132;6.408;2023-08-21T07:32:53;7.32;;;1.70;;
59207;SDS011;44977;53.132;6.408;2023-08-21T07:37:54;6.30;;;1.38;;
59207;SDS011;44977;53.132;6.408;2023-08-21T07:42:54;7.85;;;1.85;;
59207;SDS011;44977;53.132;6.408;2023-08-21T07:47:55;6.35;;;1.48;;
59207;SDS011;44977;53.132;6.408;2023-08-21T07:52:56;6.05;;;1.58;;
59207;SDS011;44977;53.132;6.408;2023-08-21T07:57:56;5.43;;;1.58;;
59207;SDS011;44977;53.132;6.408;2023-08-21T08:02:57;4.70;;;1.35;;
59207;SDS011;44977;53.132;6.408;2023-08-21T08:07:58;6.25;;;1.60;;
59207;SDS011;44977;53.132;6.408;2023-08-21T08:12:58;7.07;;;1.52;;
59207;SDS011;44977;53.132;6.408;2023-08-21T08:17:59;6.15;;;1.40;;
59207;SDS011;44977;53.132;6.408;2023-08-21T14:44:44;4.20;;;1.08;;
59207;SDS011;44977;53.132;6.408;2023-08-21T14:49:45;2.55;;;0.70;;
59207;SDS011;44977;53.132;6.408;2023-08-21T14:54:47;4.72;;;1.13;;
59207;SDS011;44977;53.132;6.408;2023-08-21T14:59:50;4.95;;;0.98;;
59207;SDS011;44977;53.132;6.408;2023-08-21T15:04:51;3.03;;;0.70;;
59207;SDS011;44977;53.132;6.408;2023-08-21T15:09:51;4.20;;;0.70;;
59207;SDS011;44977;53.132;6.408;2023-08-21T15:14:52;1.70;;;0.80;;
59207;SDS011;44977;53.132;6.408;2023-08-21T15:19:53;5.03;;;1.00;;
59207;SDS011;44977;53.132;6.408;2023-08-21T15:24:53;6.78;;;1.45;;
59207;SDS011;44977;53.132;6.408;2023-08-21T15:29:54;4.95;;;1.52;;
59207;SDS011;44977;53.132;6.408;2023-08-21T15:34:55;6.20;;;1.77;;
59207;SDS011;44977;53.132;6.408;2023-08-21T15:39:56;8.00;;;1.60;;
59207;SDS011;44977;53.132;6.408;2023-08-21T15:44:56;6.35;;;1.70;;
59207;SDS011;44977;53.132;6.408;2023-08-21T15:49:57;9.13;;;2.40;;
59207;SDS011;44977;53.132;6.408;2023-08-21T15:54:58;8.77;;;2.40;;
59207;SDS011;44977;53.132;6.408;2023-08-21T15:59:58;8.02;;;2.08;;
59207;SDS011;44977;53.132;6.408;2023-08-21T16:04:59;7.88;;;2.47;;
59207;SDS011;44977;53.132;6.408;2023-08-21T16:10:00;9.35;;;2.70;;
59207;SDS011;44977;53.132;6.408;2023-08-21T16:15:01;7.00;;;2.15;;
59207;SDS011;44977;53.132;6.408;2023-08-21T16:20:01;7.22;;;2.25;;
59207;SDS011;44977;53.132;6.408;2023-08-21T16:25:05;8.40;;;2.45;;
59207;SDS011;44977;53.132;6.408;2023-08-21T16:30:06;7.57;;;2.05;;
59207;SDS011;44977;53.132;6.408;2023-08-21T16:35:08;6.10;;;1.77;;
59207;SDS011;44977;53.132;6.408;2023-08-21T16:40:09;8.38;;;2.08;;
59207;SDS011;44977;53.132;6.408;2023-08-21T16:45:11;5.53;;;1.50;;
59207;SDS011;44977;53.132;6.408;2023-08-21T16:50:14;7.78;;;1.83;;
59207;SDS011;44977;53.132;6.408;2023-08-21T16:55:14;5.93;;;1.75;;
59207;SDS011;44977;53.132;6.408;2023-08-21T17:00:15;5.88;;;1.92;;
59207;SDS011;44977;53.132;6.408;2023-08-21T17:05:16;6.97;;;1.95;;
59207;SDS011;44977;53.132;6.408;2023-08-21T17:10:17;7.78;;;1.95;;
59207;SDS011;44977;53.132;6.408;2023-08-21T17:15:18;6.78;;;1.70;;
59207;SDS011;44977;53.132;6.408;2023-08-21T17:20:20;7.28;;;1.90;;
59207;SDS011;44977;53.132;6.408;2023-08-21T17:25:21;8.32;;;2.25;;
59207;SDS011;44977;53.132;6.408;2023-08-21T17:30:22;6.57;;;1.90;;
59207;SDS011;44977;53.132;6.408;2023-08-21T17:35:22;7.43;;;1.80;;
59207;SDS011;44977;53.132;6.408;2023-08-21T17:40:23;5.55;;;1.75;;
59207;SDS011;44977;53.132;6.408;2023-08-21T17:45:24;8.07;;;1.80;;
59207;SDS011;44977;53.132;6.408;2023-08-21T17:50:25;7.55;;;1.65;;
59207;SDS011;44977;53.132;6.408;2023-08-21T17:55:25;10.77;;;2.45;;
59207;SDS011;44977;53.132;6.408;2023-08-21T18:00:26;6.75;;;1.85;;
59207;SDS011;44977;53.132;6.408;2023-08-21T18:05:28;7.35;;;2.00;;
59207;SDS011;44977;53.132;6.408;2023-08-21T18:10:31;6.43;;;1.90;;
59207;SDS011;44977;53.132;6.408;2023-08-21T18:15:33;5.35;;;1.55;;
59207;SDS011;44977;53.132;6.408;2023-08-21T18:25:51;7.13;;;1.83;;
59207;SDS011;44977;53.132;6.408;2023-08-21T18:30:53;6.65;;;2.33;;
59207;SDS011;44977;53.132;6.408;2023-08-21T18:35:57;5.38;;;1.70;;
59207;SDS011;44977;53.132;6.408;2023-08-21T18:40:58;4.68;;;1.80;;
59207;SDS011;44977;53.132;6.408;2023-08-21T18:46:00;6.10;;;2.13;;
59207;SDS011;44977;53.132;6.408;2023-08-21T18:51:01;7.13;;;2.00;;
59207;SDS011;44977;53.132;6.408;2023-08-21T18:56:02;7.47;;;2.50;;
59207;SDS011;44977;53.132;6.408;2023-08-21T19:01:04;8.35;;;3.40;;
59207;SDS011;44977;53.132;6.408;2023-08-21T19:06:05;9.95;;;4.60;;
59207;SDS011;44977;53.132;6.408;2023-08-21T19:11:06;10.52;;;4.93;;
59207;SDS011;44977;53.132;6.408;2023-08-21T19:16:07;8.20;;;3.78;;
59207;SDS011;44977;53.132;6.408;2023-08-21T19:21:07;10.98;;;4.90;;
59207;SDS011;44977;53.132;6.408;2023-08-21T19:26:08;11.80;;;4.55;;
59207;SDS011;44977;53.132;6.408;2023-08-21T19:31:09;9.10;;;3.50;;
59207;SDS011;44977;53.132;6.408;2023-08-21T19:36:11;8.38;;;3.58;;
59207;SDS011;44977;53.132;6.408;2023-08-21T19:41:12;9.32;;;3.85;;
59207;SDS011;44977;53.132;6.408;2023-08-21T19:46:13;8.38;;;3.58;;
59207;SDS011;44977;53.132;6.408;2023-08-21T19:51:14;7.95;;;3.80;;
59207;SDS011;44977;53.132;6.408;2023-08-21T19:56:15;9.20;;;3.80;;
59207;SDS011;44977;53.132;6.408;2023-08-21T20:01:15;9.85;;;3.55;;
59207;SDS011;44977;53.132;6.408;2023-08-21T20:06:16;8.40;;;3.50;;
59207;SDS011;44977;53.132;6.408;2023-08-21T20:11:17;8.23;;;3.60;;
59207;SDS011;44977;53.132;6.408;2023-08-21T20:16:18;9.48;;;4.00;;
59207;SDS011;44977;53.132;6.408;2023-08-21T20:21:18;7.72;;;3.58;;
59207;SDS011;44977;53.132;6.408;2023-08-21T20:26:21;10.43;;;4.68;;
59207;SDS011;44977;53.132;6.408;2023-08-21T20:31:24;10.30;;;4.97;;
59207;SDS011;44977;53.132;6.408;2023-08-21T20:36:29;9.77;;;4.47;;
59207;SDS011;44977;53.132;6.408;2023-08-21T20:41:30;9.40;;;3.40;;
59207;SDS011;44977;53.132;6.408;2023-08-21T20:46:30;9.20;;;3.85;;
59207;SDS011;44977;53.132;6.408;2023-08-21T20:51:31;9.50;;;3.83;;
59207;SDS011;44977;53.132;6.408;2023-08-21T20:56:32;7.63;;;3.58;;
59207;SDS011;44977;53.132;6.408;2023-08-21T21:01:33;8.27;;;3.92;;
59207;SDS011;44977;53.132;6.408;2023-08-21T21:06:33;8.40;;;3.58;;
59207;SDS011;44977;53.132;6.408;2023-08-21T21:11:35;7.00;;;3.10;;
59207;SDS011;44977;53.132;6.408;2023-08-21T21:16:36;8.07;;;3.20;;
59207;SDS011;44977;53.132;6.408;2023-08-21T21:21:37;7.85;;;3.40;;
59207;SDS011;44977;53.132;6.408;2023-08-21T21:26:41;8.50;;;3.00;;
59207;SDS011;44977;53.132;6.408;2023-08-21T21:31:42;7.60;;;2.92;;
59207;SDS011;44977;53.132;6.408;2023-08-21T21:36:42;6.90;;;3.00;;
59207;SDS011;44977;53.132;6.408;2023-08-21T21:41:44;8.25;;;3.05;;
59207;SDS011;44977;53.132;6.408;2023-08-21T21:46:45;5.70;;;2.60;;
59207;SDS011;44977;53.132;6.408;2023-08-21T21:51:45;6.80;;;2.50;;
59207;SDS011;44977;53.132;6.408;2023-08-21T21:56:46;8.15;;;3.05;;
59207;SDS011;44977;53.132;6.408;2023-08-21T22:01:47;6.75;;;2.90;;
59207;SDS011;44977;53.132;6.408;2023-08-21T22:06:47;7.22;;;2.88;;
59207;SDS011;44977;53.132;6.408;2023-08-21T22:11:48;7.00;;;2.83;;
59207;SDS011;44977;53.132;6.408;2023-08-21T22:16:49;7.93;;;2.70;;
59207;SDS011;44977;53.132;6.408;2023-08-21T22:21:50;7.40;;;2.92;;
59207;SDS011;44977;53.132;6.408;2023-08-21T22:26:50;7.95;;;3.05;;
59207;SDS011;44977;53.132;6.408;2023-08-21T22:31:51;9.23;;;3.08;;
59207;SDS011;44977;53.132;6.408;2023-08-21T22:36:51;6.13;;;2.90;;
59207;SDS011;44977;53.132;6.408;2023-08-21T22:41:53;7.25;;;3.20;;
59207;SDS011;44977;53.132;6.408;2023-08-21T22:46:53;6.70;;;2.97;;
59207;SDS011;44977;53.132;6.408;2023-08-21T22:51:54;8.60;;;3.20;;
59207;SDS011;44977;53.132;6.408;2023-08-21T22:56:55;8.73;;;3.28;;
59207;SDS011;44977;53.132;6.408;2023-08-21T23:01:55;7.60;;;3.25;;
59207;SDS011;44977;53.132;6.408;2023-08-21T23:06:56;8.20;;;3.03;;
59207;SDS011;44977;53.132;6.408;2023-08-21T23:11:57;8.93;;;3.60;;
59207;SDS011;44977;53.132;6.408;2023-08-21T23:16:57;7.40;;;3.58;;
59207;SDS011;44977;53.132;6.408;2023-08-21T23:21:58;7.60;;;3.50;;
59207;SDS011;44977;53.132;6.408;2023-08-21T23:26:59;8.23;;;3.65;;
59207;SDS011;44977;53.132;6.408;2023-08-21T23:32:00;7.10;;;3.10;;
59207;SDS011;44977;53.132;6.408;2023-08-21T23:37:01;5.55;;;2.95;;
59207;SDS011;44977;53.132;6.408;2023-08-21T23:42:01;7.13;;;3.40;;
59207;SDS011;44977;53.132;6.408;2023-08-21T23:47:03;8.52;;;3.63;;
59207;SDS011;44977;53.132;6.408;2023-08-21T23:52:04;6.70;;;3.35;;
59207;SDS011;44977;53.132;6.408;2023-08-21T23:57:04;6.72;;;3.83;;
